Time;durP1;ratioP1;P1;durP2;ratioP2;P2;SDS_P1;SDS_P2;PMS_P1;PMS_P2;Temp;Humidity;BMP_temperature;BMP_pressure;BME280_temperature;BME280_humidity;BME280_pressure;Samples;Min_cycle;Max_cycle;Signal;HPM_P1;HPM_P2
2021/01/30 08:46:34;;;;;;;173.57;83.40;;;;;;;-2.72;86.39;96482.08;2223915;79;22215;-95
2021/01/30 08:49:37;;;;;;;97.02;47.05;;;;;;;-2.69;86.19;96476.16;2227292;80;21278;-85
2021/01/30 08:52:39;;;;;;;92.33;43.83;;;;;;;-2.52;86.00;96477.06;2190482;80;21117;-86
2021/01/30 08:55:40;;;;;;;108.07;52.33;;;;;;;-2.37;85.69;96471.70;2190557;80;21777;-88
2021/01/30 08:58:42;;;;;;;89.95;44.27;;;;;;;-2.19;85.48;96481.07;2188241;81;21290;-92
2021/01/30 09:01:43;;;;;;;100.62;43.83;;;;;;;-2.03;85.20;96480.63;2188064;81;21306;-88
2021/01/30 09:04:45;;;;;;;65.45;32.90;;;;;;;-1.94;84.85;96480.18;2206876;80;21297;-92
2021/01/30 09:07:48;;;;;;;45.20;24.98;;;;;;;-1.85;84.77;96479.24;2225502;80;21258;-91
2021/01/30 09:10:50;;;;;;;53.08;28.98;;;;;;;-1.76;84.46;96484.72;2192228;80;21166;-91
2021/01/30 09:13:52;;;;;;;73.28;36.65;;;;;;;-1.72;84.17;96490.36;2194038;80;21294;-87
2021/01/30 09:16:53;;;;;;;58.02;31.40;;;;;;;-1.73;84.14;96494.69;2189445;80;21746;-88
2021/01/30 09:19:55;;;;;;;50.85;27.55;;;;;;;-1.69;84.00;96495.65;2195699;80;21635;-91
2021/01/30 09:22:56;;;;;;;61.90;32.10;;;;;;;-1.70;84.07;96499.17;2187266;81;21312;-94
2021/01/30 09:25:58;;;;;;;71.80;42.27;;;;;;;-1.66;83.95;96496.61;2188679;81;21336;-93
2021/01/30 09:29:02;;;;;;;60.58;33.58;;;;;;;-1.52;84.04;96507.56;2188454;81;21309;-90
2021/01/30 09:32:03;;;;;;;46.37;27.52;;;;;;;-1.44;83.42;96514.80;2188902;81;21194;-89
2021/01/30 09:35:05;;;;;;;51.08;29.15;;;;;;;-1.36;83.49;96516.58;2189244;80;21551;-88
2021/01/30 09:38:10;;;;;;;48.30;27.45;;;;;;;-1.34;83.40;96524.92;2189109;81;21301;-90
2021/01/30 09:41:12;;;;;;;42.25;22.25;;;;;;;-1.32;83.07;96531.98;2188720;81;21757;-89
2021/01/30 09:44:13;;;;;;;45.33;23.30;;;;;;;-1.34;82.90;96528.77;2182282;81;21321;-90
2021/01/30 09:47:15;;;;;;;45.15;25.85;;;;;;;-1.34;83.00;96526.20;2139877;82;21119;-89
2021/01/30 09:50:16;;;;;;;37.28;20.85;;;;;;;-1.33;82.57;96529.09;2140031;83;21116;-90
2021/01/30 09:53:18;;;;;;;32.63;19.92;;;;;;;-1.29;82.34;96539.84;2139507;83;21176;-87
2021/01/30 09:56:20;;;;;;;38.55;20.68;;;;;;;-1.31;82.34;96541.28;2139513;83;21310;-88
2021/01/30 09:59:21;;;;;;;35.63;21.25;;;;;;;-1.32;82.81;96548.66;2139120;82;21327;-89
2021/01/30 10:02:23;;;;;;;47.17;26.02;;;;;;;-1.30;82.23;96542.09;2139707;81;21329;-87
2021/01/30 10:05:25;;;;;;;36.95;20.52;;;;;;;-1.30;82.08;96549.78;2143985;80;21137;-89
2021/01/30 10:08:28;;;;;;;41.58;23.55;;;;;;;-1.38;81.54;96558.75;2143804;81;21140;-86
2021/01/30 10:11:29;;;;;;;43.42;22.55;;;;;;;-1.40;81.34;96566.62;2142227;81;21187;-92
2021/01/30 10:14:31;;;;;;;39.78;22.10;;;;;;;-1.41;82.01;96568.06;2139681;83;21345;-91
2021/01/30 10:17:33;;;;;;;30.05;18.73;;;;;;;-1.34;81.56;96567.77;2139488;82;21298;-90
2021/01/30 10:20:34;;;;;;;30.75;18.17;;;;;;;-1.25;82.08;96574.05;2139473;83;21267;-91
2021/01/30 10:23:36;;;;;;;34.33;18.37;;;;;;;-1.11;80.98;96578.23;2141813;83;21101;-89
2021/01/30 10:26:37;;;;;;;39.92;23.18;;;;;;;-0.96;81.05;96579.22;2143632;81;21144;-88
2021/01/30 10:29:39;;;;;;;35.60;21.95;;;;;;;-0.88;80.81;96582.59;2143243;81;21187;-88
2021/01/30 10:32:40;;;;;;;37.90;21.65;;;;;;;-0.86;80.43;96588.38;2142275;83;21152;-89
2021/01/30 10:35:42;;;;;;;33.15;15.98;;;;;;;-0.88;80.40;96603.16;2141556;83;21202;-88
2021/01/30 10:38:43;;;;;;;25.82;14.85;;;;;;;-0.89;79.58;96602.84;2141595;82;21821;-88
2021/01/30 10:41:45;;;;;;;21.73;13.08;;;;;;;-0.87;79.98;96618.09;2141644;82;21116;-89
2021/01/30 10:44:46;;;;;;;29.12;15.80;;;;;;;-0.83;79.74;96615.52;2141440;82;21270;-88
2021/01/30 10:47:48;;;;;;;26.02;14.28;;;;;;;-0.79;79.88;96616.02;2141429;83;21183;-87
2021/01/30 10:50:49;;;;;;;25.75;14.68;;;;;;;-0.75;79.91;96613.44;2140316;82;21191;-87
2021/01/30 10:53:51;;;;;;;22.27;13.65;;;;;;;-0.77;79.18;96632.87;2141465;83;21155;-89
2021/01/30 10:56:53;;;;;;;23.55;14.98;;;;;;;-0.83;79.47;96645.55;2141616;83;21551;-88
2021/01/30 10:59:54;;;;;;;26.42;15.03;;;;;;;-1.00;79.25;96659.67;2141646;83;21176;-90
2021/01/30 11:02:56;;;;;;;21.23;13.53;;;;;;;-1.15;79.93;96677.91;2141328;83;21159;-91
2021/01/30 11:05:59;;;;;;;21.20;14.68;;;;;;;-1.31;80.19;96681.22;2141182;82;21274;-89
2021/01/30 11:09:01;;;;;;;27.60;16.93;;;;;;;-1.47;81.11;96683.72;2141328;83;21568;-89
2021/01/30 11:12:02;;;;;;;26.15;15.10;;;;;;;-1.47;81.20;96676.02;2141374;83;21168;-89
2021/01/30 11:15:04;;;;;;;29.35;16.37;;;;;;;-1.40;80.72;96678.78;2141410;82;21171;-90
2021/01/30 11:18:05;;;;;;;38.00;18.80;;;;;;;-1.27;80.65;96674.03;2141253;83;21294;-89
2021/01/30 11:21:07;;;;;;;29.10;16.48;;;;;;;-1.19;80.86;96688.16;2140802;82;21753;-89
2021/01/30 11:24:08;;;;;;;19.37;12.60;;;;;;;-1.19;80.22;96704.85;2140365;83;21184;-92
2021/01/30 11:27:10;;;;;;;20.82;12.55;;;;;;;-1.22;79.84;96730.38;2140697;82;21295;-90
2021/01/30 11:30:12;;;;;;;30.02;16.60;;;;;;;-1.26;80.50;96739.83;2141103;83;21211;-89
2021/01/30 11:33:14;;;;;;;26.75;16.50;;;;;;;-1.24;80.70;96746.42;2141210;83;21172;-90
2021/01/30 11:36:16;;;;;;;30.08;17.87;;;;;;;-1.20;80.76;96759.27;2141476;82;21172;-89
2021/01/30 11:39:18;;;;;;;35.35;19.15;;;;;;;-1.15;81.12;96755.77;2141285;82;21160;-89
2021/01/30 11:42:20;;;;;;;32.23;17.30;;;;;;;-1.04;80.87;96763.68;2141004;83;21144;-91
2021/01/30 11:45:22;;;;;;;27.13;16.40;;;;;;;-0.99;80.16;96768.38;2140949;82;21148;-89
2021/01/30 11:48:24;;;;;;;28.47;15.10;;;;;;;-0.99;79.40;96788.44;2141282;83;21156;-90
2021/01/30 11:51:25;;;;;;;33.67;19.67;;;;;;;-0.96;79.83;96787.32;2141490;82;21869;-88
2021/01/30 11:54:27;;;;;;;31.85;19.40;;;;;;;-0.96;79.50;96806.11;2141449;82;21172;-88
2021/01/30 11:57:28;;;;;;;34.53;19.50;;;;;;;-1.00;79.23;96797.11;2139374;82;21270;-90
2021/01/30 12:00:30;;;;;;;37.63;19.60;;;;;;;-0.99;79.20;96802.57;2139627;83;21310;-90
2021/01/30 12:03:31;;;;;;;37.98;20.48;;;;;;;-0.93;78.86;96816.06;2141507;83;21199;-89
2021/01/30 12:06:33;;;;;;;39.58;21.97;;;;;;;-0.94;78.39;96819.60;2141401;83;21159;-90
2021/01/30 12:09:34;;;;;;;41.77;22.93;;;;;;;-0.92;78.64;96826.67;2141502;82;21116;-90
2021/01/30 12:12:36;;;;;;;43.83;25.00;;;;;;;-0.94;79.01;96829.87;2141226;83;21326;-89
2021/01/30 12:15:38;;;;;;;56.25;29.25;;;;;;;-0.89;79.32;96843.09;2141270;83;21674;-90
2021/01/30 12:18:39;;;;;;;55.78;31.23;;;;;;;-0.88;79.11;96848.55;2140972;82;21315;-89
2021/01/30 12:21:41;;;;;;;67.37;36.88;;;;;;;-1.03;78.98;96859.05;2141715;82;21188;-91
2021/01/30 12:24:43;;;;;;;66.85;35.58;;;;;;;-1.04;78.48;96857.45;2141197;83;21144;-93
2021/01/30 12:27:44;;;;;;;67.97;35.43;;;;;;;-0.92;78.97;96854.13;2139678;82;21171;-92
2021/01/30 12:30:48;;;;;;;65.12;36.55;;;;;;;-0.86;78.40;96872.80;2121021;83;21603;-93
2021/01/30 12:33:50;;;;;;;79.92;42.58;;;;;;;-0.78;78.31;96874.13;2139015;83;21187;-94
2021/01/30 12:36:51;;;;;;;78.25;41.02;;;;;;;-0.68;77.87;96875.30;2140527;83;21294;-92
2021/01/30 12:39:53;;;;;;;73.15;39.48;;;;;;;-0.55;77.38;96886.44;2139522;83;21370;-91
2021/01/30 12:42:54;;;;;;;69.22;36.48;;;;;;;-0.54;77.47;96897.88;2139059;83;21306;-89
2021/01/30 12:45:56;;;;;;;67.00;38.55;;;;;;;-0.49;77.32;96899.97;2138720;82;21762;-86
2021/01/30 12:48:57;;;;;;;76.72;37.93;;;;;;;-0.51;77.12;96906.55;2138603;82;21314;-87
2021/01/30 12:51:59;;;;;;;77.70;40.52;;;;;;;-0.59;77.03;96923.22;2138699;83;21337;-87
2021/01/30 12:55:01;;;;;;;73.78;36.60;;;;;;;-0.68;77.08;96921.09;2139395;82;21278;-82
2021/01/30 12:58:02;;;;;;;73.10;38.70;;;;;;;-0.69;77.60;96933.61;2143737;83;21164;-88
2021/01/30 13:01:04;;;;;;;70.92;40.90;;;;;;;-0.75;77.21;96938.07;2141446;83;21298;-88
2021/01/30 13:04:07;;;;;;;89.52;47.17;;;;;;;-0.77;77.84;96949.47;2139616;83;21168;-89
2021/01/30 13:07:11;;;;;;;98.03;47.43;;;;;;;-0.83;77.53;96953.44;2139217;82;21290;-90
2021/01/30 13:10:12;;;;;;;69.05;37.50;;;;;;;-0.81;77.70;96947.69;2139605;83;21159;-92
2021/01/30 13:13:14;;;;;;;67.42;35.95;;;;;;;-0.79;77.04;96962.47;2139434;83;21342;-92
2021/01/30 13:16:16;;;;;;;65.70;36.38;;;;;;;-0.80;77.25;96960.86;2141417;82;21159;-91
2021/01/30 13:19:17;;;;;;;56.58;32.55;;;;;;;-0.82;76.62;96960.66;2143786;80;21259;-90
2021/01/30 13:22:19;;;;;;;61.13;33.55;;;;;;;-0.95;76.61;96958.50;2141910;82;21199;-91
2021/01/30 13:25:21;;;;;;;68.07;37.73;;;;;;;-0.98;77.05;96961.38;2140401;83;21124;-92
2021/01/30 13:28:26;;;;;;;66.72;36.77;;;;;;;-0.98;77.59;96960.91;2139530;83;21294;-94
2021/01/30 13:31:29;;;;;;;63.98;34.53;;;;;;;-0.96;77.47;96969.26;2137942;83;21192;-91
2021/01/30 13:34:33;;;;;;;65.62;35.28;;;;;;;-0.92;77.13;96977.47;2139732;83;21144;-92
2021/01/30 13:37:38;;;;;;;61.37;34.25;;;;;;;-0.90;77.23;96993.08;2139309;82;21168;-94
2021/01/30 13:40:40;;;;;;;62.93;34.30;;;;;;;-0.94;77.61;96997.37;2139261;83;21805;-94
2021/01/30 13:43:41;;;;;;;66.07;33.38;;;;;;;-0.94;77.42;97008.93;2141413;82;21180;-90
2021/01/30 13:46:43;;;;;;;59.67;30.50;;;;;;;-1.00;77.41;97012.12;2156529;82;21278;-91
2021/01/30 13:49:45;;;;;;;60.15;31.68;;;;;;;-0.98;77.88;97021.76;2171387;82;21148;-90
2021/01/30 13:52:46;;;;;;;62.38;34.18;;;;;;;-0.99;77.66;97020.95;2170784;82;21172;-91
2021/01/30 13:55:48;;;;;;;48.60;29.42;;;;;;;-0.98;77.59;97029.47;2171577;82;21171;-92
2021/01/30 13:58:49;;;;;;;63.90;34.18;;;;;;;-1.00;77.85;97026.25;2171165;82;21337;-90
2021/01/30 14:01:51;;;;;;;61.53;32.45;;;;;;;-1.00;78.06;97032.67;2173035;82;22492;-92
2021/01/30 14:04:53;;;;;;;43.52;24.77;;;;;;;-1.03;77.24;97034.23;2172052;81;21306;-93
2021/01/30 14:07:55;;;;;;;51.37;27.20;;;;;;;-1.14;77.69;97032.69;2171108;82;21286;-92
2021/01/30 14:10:56;;;;;;;45.80;25.43;;;;;;;-1.18;78.11;97039.90;2171264;82;21630;-92
2021/01/30 14:13:57;;;;;;;52.62;28.30;;;;;;;-1.24;78.04;97044.33;2171108;82;21297;-92
2021/01/30 14:16:59;;;;;;;61.98;31.05;;;;;;;-1.26;78.35;97051.37;2171074;82;21317;-90
2021/01/30 14:20:04;;;;;;;50.52;27.30;;;;;;;-1.24;78.37;97059.73;2171093;82;21167;-90
2021/01/30 14:23:05;;;;;;;57.35;32.15;;;;;;;-1.24;78.41;97059.73;2171115;82;21155;-92
2021/01/30 14:26:07;;;;;;;61.42;33.35;;;;;;;-1.21;78.22;97067.14;2170779;81;21290;-92
2021/01/30 14:29:08;;;;;;;44.45;24.85;;;;;;;-1.26;78.14;97069.83;2170826;82;21290;-87
2021/01/30 14:32:11;;;;;;;67.82;35.20;;;;;;;-1.26;78.22;97078.34;2172514;82;21269;-90
2021/01/30 14:35:12;;;;;;;62.65;34.18;;;;;;;-1.28;78.47;97087.13;2171512;82;21143;-91
2021/01/30 14:38:14;;;;;;;54.13;29.57;;;;;;;-1.27;78.78;97087.00;2171880;80;21297;-91
2021/01/30 14:41:15;;;;;;;47.73;25.92;;;;;;;-1.27;78.42;97092.14;2170807;82;21139;-91
2021/01/30 14:44:17;;;;;;;46.13;26.65;;;;;;;-1.28;77.90;97105.09;2171032;82;21128;-91
2021/01/30 14:47:21;;;;;;;46.15;26.62;;;;;;;-1.35;78.01;97102.32;2171538;82;21306;-91
2021/01/30 14:50:22;;;;;;;44.40;26.07;;;;;;;-1.37;78.22;97109.81;2171252;82;21626;-91
2021/01/30 14:53:24;;;;;;;49.48;27.82;;;;;;;-1.41;78.44;97120.05;2170841;82;21204;-93
2021/01/30 14:56:27;;;;;;;66.60;33.10;;;;;;;-1.40;78.55;97124.23;2171647;81;21182;-93
2021/01/30 14:59:29;;;;;;;94.42;43.90;;;;;;;-1.37;78.83;97131.19;2171384;80;21147;-90
2021/01/30 15:02:31;;;;;;;88.75;43.55;;;;;;;-1.34;78.83;97133.47;2170494;82;21306;-91
2021/01/30 15:05:36;;;;;;;84.03;40.30;;;;;;;-1.31;78.99;97135.73;2171042;82;21152;-91
2021/01/30 15:08:43;;;;;;;77.50;38.25;;;;;;;-1.29;78.97;97142.01;2171361;82;21596;-91
2021/01/30 15:11:47;;;;;;;65.52;37.33;;;;;;;-1.28;79.12;97143.63;2171453;80;21344;-88
2021/01/30 15:14:49;;;;;;;83.27;39.23;;;;;;;-1.28;78.98;97153.89;2170685;82;21194;-90
2021/01/30 15:17:54;;;;;;;80.35;42.70;;;;;;;-1.26;79.01;97156.67;2172098;82;21132;-89
2021/01/30 15:21:06;;;;;;;;;;;;;;;;;;;;;
2021/01/30 15:24:00;;;;;;;61.98;32.60;;;;;;;-1.33;79.32;97165.89;2168875;82;21725;-91
2021/01/30 15:27:14;;;;;;;68.87;35.73;;;;;;;-1.36;79.46;97170.04;2173017;80;21290;-92
2021/01/30 15:30:27;;;;;;;65.65;35.30;;;;;;;-1.35;79.47;97181.12;2172801;82;21151;-91
2021/01/30 15:36:52;;;;;;;74.67;39.25;;;;;;;-1.40;79.47;97192.27;2172028;82;21299;-91
2021/01/30 15:39:58;;;;;;;86.15;41.98;;;;;;;-1.44;79.47;97192.56;2172583;82;21262;-86
2021/01/30 15:43:02;;;;;;;74.53;40.63;;;;;;;-1.47;79.40;97201.01;2172211;82;21310;-88
2021/01/30 15:46:04;;;;;;;67.95;37.35;;;;;;;-1.51;79.55;97203.06;2168090;80;21294;-89
2021/01/30 15:49:16;;;;;;;;;;;;;;;;;;;;;
2021/01/30 15:52:11;;;;;;;68.78;36.13;;;;;;;-1.59;79.89;97211.94;2127192;80;21282;-93
2021/01/30 15:55:14;;;;;;;66.12;36.38;;;;;;;-1.61;79.79;97211.27;2224488;80;21148;-89
2021/01/30 15:58:16;;;;;;;69.55;38.50;;;;;;;-1.62;79.82;97229.38;2224558;79;21154;-87
2021/01/30 16:01:17;;;;;;;71.85;38.63;;;;;;;-1.63;79.89;97226.48;2223098;80;21314;-90
2021/01/30 16:04:20;;;;;;;69.27;37.58;;;;;;;-1.70;80.14;97224.94;2199354;80;21246;-92
2021/01/30 16:07:23;;;;;;;71.55;38.98;;;;;;;-1.72;80.18;97225.08;2220983;80;21298;-90
2021/01/30 16:10:26;;;;;;;78.40;42.25;;;;;;;-1.72;80.19;97231.97;2222453;80;21522;-88
2021/01/30 16:17:12;;;;;;;90.57;46.45;;;;;;;-1.75;80.37;97231.75;2090602;78;21264;-94
2021/01/30 16:20:16;;;;;;;106.80;51.08;;;;;;;-1.79;80.58;97239.41;2124443;80;21114;-94
2021/01/30 16:23:18;;;;;;;75.83;38.75;;;;;;;-1.77;80.87;97236.70;2171196;81;21265;-90
2021/01/30 16:26:20;;;;;;;87.47;42.62;;;;;;;-1.75;80.74;97243.30;2170322;81;21285;-90
2021/01/30 16:29:26;;;;;;;96.08;45.63;;;;;;;-1.75;80.97;97254.84;2170757;81;21272;-94
2021/01/30 16:32:25;;;;;;;79.27;38.38;;;;;;;-1.76;80.87;97259.65;2171118;82;21252;-94
2021/01/30 16:35:36;;;;;;;86.37;41.92;;;;;;;-1.75;81.08;97256.13;2170912;82;21146;-95
2021/01/30 16:38:40;;;;;;;82.40;40.92;;;;;;;-1.75;80.99;97261.27;2171499;81;21157;-95
2021/01/30 16:41:42;;;;;;;76.40;37.42;;;;;;;-1.77;80.94;97264.45;2171929;81;21149;-93
2021/01/30 16:44:45;;;;;;;72.50;35.40;;;;;;;-1.76;81.10;97266.54;2172928;81;21118;-92
2021/01/30 16:47:50;;;;;;;79.65;39.80;;;;;;;-1.79;81.15;97260.41;2172727;82;21154;-94
2021/01/30 16:50:52;;;;;;;67.03;34.95;;;;;;;-1.80;81.11;97269.06;2172367;81;21153;-94
2021/01/30 16:53:55;;;;;;;62.93;32.48;;;;;;;-1.75;81.12;97273.29;2171908;81;21169;-94
2021/01/30 16:56:58;;;;;;;60.45;31.02;;;;;;;-1.73;81.11;97271.42;2171876;81;21127;-93
2021/01/30 17:00:01;;;;;;;60.90;32.65;;;;;;;-1.73;81.15;97268.86;2171643;81;21126;-92
2021/01/30 17:03:04;;;;;;;59.15;30.82;;;;;;;-1.74;81.18;97269.77;2148532;82;21736;-93
2021/01/30 17:06:13;;;;;;;55.78;31.82;;;;;;;-1.70;81.23;97281.88;2172923;81;21158;-93
2021/01/30 17:09:16;;;;;;;52.78;27.58;;;;;;;-1.66;81.28;97284.48;2172424;81;21105;-95
2021/01/30 17:12:19;;;;;;;48.15;26.12;;;;;;;-1.63;81.23;97291.46;2172236;82;21747;-95
2021/01/30 17:15:21;;;;;;;53.75;28.27;;;;;;;-1.64;81.22;97289.03;2172710;82;21110;-94
2021/01/30 17:18:35;;;;;;;;;;;;;;;;;;;;;
2021/01/30 17:21:51;;;;;;;48.30;26.50;;;;;;;-1.64;81.29;97314.23;2152543;82;21261;-94
2021/01/30 17:25:03;;;;;;;46.68;26.82;;;;;;;-1.64;81.16;97317.27;2134543;83;21167;-95
2021/01/30 17:28:06;;;;;;;55.55;28.50;;;;;;;-1.59;81.51;97313.33;2146262;82;21280;-94
2021/01/30 17:31:09;;;;;;;56.73;27.95;;;;;;;-1.57;81.26;97320.88;2145967;83;21316;-94
2021/01/30 17:34:12;;;;;;;54.98;27.80;;;;;;;-1.62;81.14;97331.58;2145957;83;21288;-95
2021/01/30 17:37:15;;;;;;;62.50;31.82;;;;;;;-1.63;81.30;97333.00;2146221;83;21336;-93
2021/01/30 17:40:18;;;;;;;62.60;30.27;;;;;;;-1.63;81.22;97338.95;2146201;83;21285;-95
2021/01/30 17:43:21;;;;;;;60.20;27.02;;;;;;;-1.61;81.41;97338.80;2146979;83;21211;-96
2021/01/30 17:46:26;;;;;;;46.15;23.85;;;;;;;-1.60;81.27;97338.66;2146597;83;21280;-95
2021/01/30 17:49:33;;;;;;;52.13;27.55;;;;;;;-1.60;81.56;97345.08;2144655;83;21174;-96
2021/01/30 17:52:37;;;;;;;57.40;27.87;;;;;;;-1.59;81.48;97345.41;2146388;83;21312;-96
2021/01/30 17:55:41;;;;;;;49.33;24.95;;;;;;;-1.54;81.39;97345.02;2146465;83;21325;-94
2021/01/30 17:58:44;;;;;;;50.03;25.25;;;;;;;-1.52;81.32;97342.64;2119595;83;21273;-93
2021/01/30 18:01:49;;;;;;;45.20;25.50;;;;;;;-1.53;81.35;97350.48;2146793;83;21174;-92
2021/01/30 18:04:53;;;;;;;50.92;25.43;;;;;;;-1.55;81.37;97349.81;2125565;83;21147;-96
2021/01/30 18:07:57;;;;;;;52.78;26.87;;;;;;;-1.58;81.39;97349.59;2124089;83;21166;-94
2021/01/30 18:11:00;;;;;;;39.63;22.10;;;;;;;-1.51;81.42;97349.88;2147233;83;21296;-95
2021/01/30 18:17:47;;;;;;;49.98;26.25;;;;;;;-1.56;81.44;97344.32;2075947;85;21331;-91
2021/01/30 18:20:51;;;;;;;49.18;25.27;;;;;;;-1.61;81.60;97347.79;2068845;85;21251;-96
2021/01/30 18:24:07;;;;;;;53.40;27.90;;;;;;;-1.72;81.55;97350.84;2033648;87;21178;-92
2021/01/30 18:27:29;;;;;;;54.48;27.37;;;;;;;-1.76;81.75;97355.89;2057629;85;21220;-89
2021/01/30 18:30:34;;;;;;;50.45;27.17;;;;;;;-1.74;81.71;97357.03;2054412;85;21158;-90
2021/01/30 18:33:36;;;;;;;50.00;27.32;;;;;;;-1.69;81.77;97357.45;2056146;86;21222;-88
2021/01/30 18:36:39;;;;;;;55.65;29.75;;;;;;;-1.67;81.68;97354.27;2055936;86;21206;-88
2021/01/30 18:39:42;;;;;;;48.28;25.75;;;;;;;-1.67;81.72;97360.68;2056316;86;21163;-89
2021/01/30 18:42:44;;;;;;;54.00;27.82;;;;;;;-1.64;81.60;97360.43;2117775;80;21116;-88
2021/01/30 18:45:47;;;;;;;71.70;33.85;;;;;;;-1.65;81.66;97354.13;2128965;80;21553;-87
2021/01/30 18:48:50;;;;;;;76.72;36.33;;;;;;;-1.66;81.68;97365.34;2126801;84;21147;-86
2021/01/30 18:51:52;;;;;;;72.53;33.45;;;;;;;-1.69;81.70;97357.45;2126069;84;21155;-88
2021/01/30 18:54:55;;;;;;;72.97;34.27;;;;;;;-1.69;81.74;97363.05;2124679;84;21301;-87
2021/01/30 18:58:00;;;;;;;89.45;37.13;;;;;;;-1.72;81.76;97366.71;2124659;84;21718;-87
2021/01/30 19:01:04;;;;;;;133.93;48.08;;;;;;;-1.75;81.91;97372.09;2124885;84;21301;-86
2021/01/30 19:04:07;;;;;;;120.67;49.10;;;;;;;-1.78;81.96;97386.02;2107381;84;21175;-86
2021/01/30 19:07:09;;;;;;;90.60;40.00;;;;;;;-1.75;81.95;97385.73;2128748;84;21293;-85
2021/01/30 19:10:12;;;;;;;59.65;29.55;;;;;;;-1.70;82.00;97381.97;2127877;84;21163;-88
2021/01/30 19:13:15;;;;;;;64.53;31.42;;;;;;;-1.64;81.95;97380.16;2125012;84;21761;-91
2021/01/30 19:16:17;;;;;;;54.83;28.10;;;;;;;-1.62;81.85;97389.81;2125079;84;21298;-93
2021/01/30 19:19:20;;;;;;;62.30;30.02;;;;;;;-1.62;81.81;97390.62;2125804;84;21131;-89
2021/01/30 19:22:23;;;;;;;57.23;28.10;;;;;;;-1.59;81.80;97398.03;2127261;83;21297;-87
2021/01/30 19:25:25;;;;;;;56.00;28.23;;;;;;;-1.52;81.84;97399.59;2128095;84;21286;-88
2021/01/30 19:28:34;;;;;;;50.55;27.55;;;;;;;-1.42;81.72;97398.30;2128095;84;21291;-87
2021/01/30 19:31:39;;;;;;;56.18;29.02;;;;;;;-1.40;81.56;97393.84;2126487;84;21563;-89
2021/01/30 19:34:43;;;;;;;48.02;27.10;;;;;;;-1.41;81.60;97395.59;2127867;84;21272;-87
2021/01/30 19:37:46;;;;;;;58.68;29.70;;;;;;;-1.34;81.43;97398.44;2127590;84;21265;-87
2021/01/30 19:40:49;;;;;;;53.55;27.25;;;;;;;-1.39;81.25;97401.41;2128042;84;21735;-88
2021/01/30 19:43:51;;;;;;;60.88;30.65;;;;;;;-1.42;81.03;97403.44;2127422;84;21730;-88
2021/01/30 19:46:54;;;;;;;59.75;29.55;;;;;;;-1.47;81.19;97401.27;2127539;84;21120;-89
2021/01/30 19:49:56;;;;;;;54.30;28.67;;;;;;;-1.46;81.18;97404.20;2127535;84;21301;-89
2021/01/30 19:52:59;;;;;;;56.05;26.35;;;;;;;-1.45;81.23;97398.12;2128578;84;21299;-88
2021/01/30 19:56:02;;;;;;;50.48;26.25;;;;;;;-1.45;81.07;97416.09;2128455;84;21325;-88
2021/01/30 20:02:53;;;;;;;62.33;30.20;;;;;;;-1.54;81.32;97421.56;1961167;91;21258;-88
2021/01/30 20:05:56;;;;;;;58.10;30.05;;;;;;;-1.54;81.39;97425.89;1990697;89;21242;-88
2021/01/30 20:08:59;;;;;;;56.88;27.75;;;;;;;-1.55;81.47;97434.06;1992692;89;21327;-90
2021/01/30 20:12:02;;;;;;;67.03;32.03;;;;;;;-1.54;81.58;97429.27;1993602;89;21658;-90
2021/01/30 20:15:04;;;;;;;61.02;32.93;;;;;;;-1.53;81.54;97422.37;1993312;88;21230;-89
2021/01/30 20:18:07;;;;;;;64.32;33.02;;;;;;;-1.51;81.52;97415.34;1993410;89;21352;-90
2021/01/30 20:21:10;;;;;;;65.22;31.07;;;;;;;-1.47;81.56;97425.19;1993241;89;21349;-90
2021/01/30 20:24:13;;;;;;;60.98;31.87;;;;;;;-1.49;81.44;97424.99;1993291;89;21387;-91
2021/01/30 20:27:16;;;;;;;60.30;30.15;;;;;;;-1.49;81.50;97420.66;1994425;89;21344;-91
2021/01/30 20:30:20;;;;;;;59.98;29.80;;;;;;;-1.52;81.54;97426.55;2019022;87;21305;-91
2021/01/30 20:33:22;;;;;;;61.45;29.18;;;;;;;-1.54;81.54;97422.03;2057143;86;21317;-93
2021/01/30 20:36:24;;;;;;;63.90;31.60;;;;;;;-1.49;81.64;97419.86;2042687;86;21188;-90
2021/01/30 20:39:27;;;;;;;71.47;34.23;;;;;;;-1.45;81.68;97415.61;2117466;82;21349;-92
2021/01/30 20:42:29;;;;;;;73.62;33.90;;;;;;;-1.39;81.56;97416.81;2176945;81;21289;-91
2021/01/30 20:45:32;;;;;;;67.53;33.70;;;;;;;-1.34;81.41;97418.51;2176750;82;21155;-88
2021/01/30 20:48:35;;;;;;;63.40;30.17;;;;;;;-1.30;81.39;97419.84;2176975;82;21317;-93
2021/01/30 20:55:22;;;;;;;50.85;26.48;;;;;;;-1.33;80.99;97438.58;2097204;83;21774;-90
2021/01/30 20:58:24;;;;;;;59.08;27.87;;;;;;;-1.35;81.02;97441.29;2094070;83;21205;-90
2021/01/30 21:01:27;;;;;;;33.67;17.25;;;;;;;-1.37;80.66;97443.19;2088687;83;21236;-90
2021/01/30 21:04:29;;;;;;;28.38;16.65;;;;;;;-1.42;79.35;97455.61;2089599;83;23200;-92
2021/01/30 21:07:32;;;;;;;32.90;17.10;;;;;;;-1.56;78.75;97457.27;2086206;85;21181;-92
2021/01/30 21:10:35;;;;;;;31.25;15.63;;;;;;;-1.70;79.08;97462.81;2086140;85;21329;-90
2021/01/30 21:13:38;;;;;;;27.22;13.48;;;;;;;-1.75;79.16;97469.14;2085996;85;21834;-91
2021/01/30 21:16:42;;;;;;;25.85;13.70;;;;;;;-1.78;77.96;97480.16;2086352;85;21302;-89
2021/01/30 21:19:44;;;;;;;24.05;12.90;;;;;;;-1.82;78.26;97487.31;2086120;85;21184;-91
2021/01/30 21:22:46;;;;;;;29.57;11.88;;;;;;;-1.86;77.93;97493.64;2086315;83;21226;-90
2021/01/30 21:25:49;;;;;;;19.55;10.70;;;;;;;-1.92;77.12;97499.75;2087510;85;21333;-90
2021/01/30 21:28:51;;;;;;;26.05;13.05;;;;;;;-1.99;76.47;97498.20;2074937;85;21675;-91
2021/01/30 21:31:53;;;;;;;15.05;9.38;;;;;;;-2.06;77.50;97495.34;2128131;82;21166;-90
2021/01/30 21:34:56;;;;;;;18.50;8.03;;;;;;;-2.07;76.86;97498.04;2170239;81;22251;-91
2021/01/30 21:37:59;;;;;;;26.52;10.98;;;;;;;-2.14;76.17;97511.03;2175976;80;21171;-91
2021/01/30 21:41:01;;;;;;;19.48;10.30;;;;;;;-2.38;76.27;97494.66;2170068;78;21519;-89
2021/01/30 21:44:03;;;;;;;18.00;10.82;;;;;;;-2.38;76.35;97517.73;2175855;81;21143;-90
2021/01/30 21:47:06;;;;;;;15.43;8.75;;;;;;;-2.44;76.79;97524.67;2172320;82;21780;-90
2021/01/30 21:50:08;;;;;;;14.28;9.45;;;;;;;-2.50;76.06;97519.57;2169019;82;21314;-89
2021/01/30 21:53:11;;;;;;;18.52;8.70;;;;;;;-2.55;75.87;97524.28;2169142;81;21294;-89
2021/01/30 21:56:15;;;;;;;16.93;8.98;;;;;;;-2.59;75.50;97529.30;2169279;81;21285;-90
2021/01/30 21:59:17;;;;;;;14.40;8.95;;;;;;;-2.66;75.98;97525.14;2174066;80;21139;-94
2021/01/30 22:02:19;;;;;;;13.62;8.68;;;;;;;-2.72;75.78;97526.94;2173812;78;21242;-89
2021/01/30 22:05:22;;;;;;;15.70;9.95;;;;;;;-2.71;76.14;97531.59;2170420;81;21655;-88
2021/01/30 22:08:24;;;;;;;19.32;10.45;;;;;;;-2.74;75.52;97526.27;2171682;81;21193;-90
2021/01/30 22:11:27;;;;;;;18.67;11.25;;;;;;;-2.77;76.08;97532.09;2183846;81;21295;-91
2021/01/30 22:14:29;;;;;;;16.02;9.85;;;;;;;-2.79;76.27;97529.66;2185817;81;21322;-91
2021/01/30 22:17:31;;;;;;;19.30;9.53;;;;;;;-2.78;76.07;97531.27;2185945;81;21271;-89
2021/01/30 22:20:34;;;;;;;22.27;11.55;;;;;;;-2.78;76.00;97540.23;2186109;81;22359;-89
2021/01/30 22:23:37;;;;;;;18.87;11.38;;;;;;;-2.71;76.98;97540.56;2185883;81;21758;-90
2021/01/30 22:26:39;;;;;;;20.43;10.48;;;;;;;-2.63;77.01;97545.41;2185399;81;21275;-90
2021/01/30 22:29:42;;;;;;;24.60;12.85;;;;;;;-2.57;75.91;97540.23;2185626;81;21295;-90
2021/01/30 22:32:44;;;;;;;22.05;14.55;;;;;;;-2.57;76.25;97537.20;2185486;81;21294;-89
2021/01/30 22:35:47;;;;;;;22.02;11.30;;;;;;;-2.51;75.88;97537.17;2185856;81;21180;-89
2021/01/30 22:38:50;;;;;;;23.12;12.15;;;;;;;-2.48;74.83;97543.32;2185431;81;21147;-90
2021/01/30 22:41:52;;;;;;;28.38;13.48;;;;;;;-2.43;75.61;97541.67;2185424;81;21310;-89
2021/01/30 22:44:59;;;;;;;22.70;11.80;;;;;;;-2.45;74.45;97550.78;2185586;81;21326;-89
2021/01/30 22:47:59;;;;;;;11.10;7.35;;;;;;;-2.49;74.13;97546.83;2185280;81;21307;-90
2021/01/30 22:51:02;;;;;;;12.73;7.15;;;;;;;-2.59;72.65;97543.40;2185546;81;21287;-90
2021/01/30 22:54:04;;;;;;;12.75;7.25;;;;;;;-2.68;72.49;97551.36;2185380;81;21287;-90
2021/01/30 22:57:07;;;;;;;7.80;6.55;;;;;;;-2.73;71.41;97545.01;2185344;81;21294;-90
2021/01/30 23:00:10;;;;;;;6.85;5.83;;;;;;;-2.76;72.29;97552.92;2185563;81;21093;-88
2021/01/30 23:03:12;;;;;;;6.95;4.35;;;;;;;-2.80;69.37;97566.94;2185679;81;21144;-89
2021/01/30 23:06:15;;;;;;;11.57;7.35;;;;;;;-2.92;68.21;97557.22;2185667;81;21314;-90
2021/01/30 23:09:17;;;;;;;15.90;9.35;;;;;;;-2.99;70.43;97556.88;2185344;81;21307;-89